sensor_id;sensor_type;location;lat;lon;timestamp;temperature;humidity
44729;DHT22;30457;53.590;9.922;2023-03-11T00:01:06;4.90;63.40
44729;DHT22;30457;53.590;9.922;2023-03-11T00:05:37;4.90;63.30
44729;DHT22;30457;53.590;9.922;2023-03-11T00:10:03;5.00;63.40
44729;DHT22;30457;53.590;9.922;2023-03-11T00:14:29;5.00;63.40
44729;DHT22;30457;53.590;9.922;2023-03-11T00:18:54;5.00;63.20
44729;DHT22;30457;53.590;9.922;2023-03-11T00:23:20;5.00;63.10
44729;DHT22;30457;53.590;9.922;2023-03-11T00:27:46;5.00;63.20
44729;DHT22;30457;53.590;9.922;2023-03-11T00:32:12;5.10;63.20
44729;DHT22;30457;53.590;9.922;2023-03-11T00:36:37;5.00;63.20
44729;DHT22;30457;53.590;9.922;2023-03-11T00:41:03;5.00;63.10
44729;DHT22;30457;53.590;9.922;2023-03-11T00:45:30;5.00;63.00
44729;DHT22;30457;53.590;9.922;2023-03-11T00:49:56;5.00;62.80
44729;DHT22;30457;53.590;9.922;2023-03-11T00:54:22;5.00;62.90
44729;DHT22;30457;53.590;9.922;2023-03-11T00:58:47;5.00;62.70
44729;DHT22;30457;53.590;9.922;2023-03-11T01:03:13;5.00;63.00
44729;DHT22;30457;53.590;9.922;2023-03-11T01:07:39;5.00;62.90
44729;DHT22;30457;53.590;9.922;2023-03-11T01:12:04;5.00;62.80
44729;DHT22;30457;53.590;9.922;2023-03-11T01:16:30;5.00;62.80
44729;DHT22;30457;53.590;9.922;2023-03-11T01:20:55;5.00;62.80
44729;DHT22;30457;53.590;9.922;2023-03-11T01:25:22;5.00;62.80
44729;DHT22;30457;53.590;9.922;2023-03-11T01:29:49;5.00;62.70
44729;DHT22;30457;53.590;9.922;2023-03-11T01:34:14;5.00;62.70
44729;DHT22;30457;53.590;9.922;2023-03-11T01:38:40;5.00;62.60
44729;DHT22;30457;53.590;9.922;2023-03-11T01:43:39;5.00;62.60
44729;DHT22;30457;53.590;9.922;2023-03-11T01:48:19;5.00;62.60
44729;DHT22;30457;53.590;9.922;2023-03-11T01:52:46;5.00;62.30
44729;DHT22;30457;53.590;9.922;2023-03-11T01:57:13;5.00;62.30
44729;DHT22;30457;53.590;9.922;2023-03-11T02:01:49;5.00;62.10
44729;DHT22;30457;53.590;9.922;2023-03-11T02:06:20;4.90;61.90
44729;DHT22;30457;53.590;9.922;2023-03-11T02:10:48;4.90;61.60
44729;DHT22;30457;53.590;9.922;2023-03-11T02:15:14;4.90;62.30
44729;DHT22;30457;53.590;9.922;2023-03-11T02:29:02;4.80;62.10
44729;DHT22;30457;53.590;9.922;2023-03-11T02:33:31;4.80;62.20
44729;DHT22;30457;53.590;9.922;2023-03-11T02:37:57;4.80;62.20
44729;DHT22;30457;53.590;9.922;2023-03-11T02:42:25;4.80;62.00
44729;DHT22;30457;53.590;9.922;2023-03-11T02:46:52;4.80;61.90
44729;DHT22;30457;53.590;9.922;2023-03-11T02:51:18;4.80;61.90
44729;DHT22;30457;53.590;9.922;2023-03-11T02:55:44;4.70;61.80
44729;DHT22;30457;53.590;9.922;2023-03-11T03:00:10;4.70;61.90
44729;DHT22;30457;53.590;9.922;2023-03-11T03:04:41;4.70;61.80
44729;DHT22;30457;53.590;9.922;2023-03-11T03:09:07;4.70;61.80
44729;DHT22;30457;53.590;9.922;2023-03-11T03:13:33;4.60;61.90
44729;DHT22;30457;53.590;9.922;2023-03-11T03:17:59;4.60;61.90
44729;DHT22;30457;53.590;9.922;2023-03-11T03:22:25;4.60;62.00
44729;DHT22;30457;53.590;9.922;2023-03-11T03:26:54;4.60;62.10
44729;DHT22;30457;53.590;9.922;2023-03-11T03:31:20;4.60;61.90
44729;DHT22;30457;53.590;9.922;2023-03-11T03:35:46;4.60;62.00
44729;DHT22;30457;53.590;9.922;2023-03-11T03:40:17;4.60;62.00
44729;DHT22;30457;53.590;9.922;2023-03-11T03:44:43;4.50;62.00
44729;DHT22;30457;53.590;9.922;2023-03-11T03:49:09;4.50;61.80
44729;DHT22;30457;53.590;9.922;2023-03-11T03:53:36;4.50;61.90
44729;DHT22;30457;53.590;9.922;2023-03-11T03:58:02;4.50;62.00
44729;DHT22;30457;53.590;9.922;2023-03-11T04:02:32;4.50;62.10
44729;DHT22;30457;53.590;9.922;2023-03-11T04:06:58;4.50;62.00
44729;DHT22;30457;53.590;9.922;2023-03-11T04:11:24;4.50;62.10
44729;DHT22;30457;53.590;9.922;2023-03-11T04:15:50;4.50;62.10
44729;DHT22;30457;53.590;9.922;2023-03-11T04:20:16;4.50;62.20
44729;DHT22;30457;53.590;9.922;2023-03-11T04:24:44;4.50;62.20
44729;DHT22;30457;53.590;9.922;2023-03-11T04:29:10;4.50;62.10
44729;DHT22;30457;53.590;9.922;2023-03-11T04:33:41;4.50;62.00
44729;DHT22;30457;53.590;9.922;2023-03-11T04:38:08;4.50;61.90
44729;DHT22;30457;53.590;9.922;2023-03-11T04:42:34;4.50;61.70
44729;DHT22;30457;53.590;9.922;2023-03-11T04:47:00;4.50;61.40
44729;DHT22;30457;53.590;9.922;2023-03-11T04:51:26;4.50;61.20
44729;DHT22;30457;53.590;9.922;2023-03-11T04:55:52;4.40;61.00
44729;DHT22;30457;53.590;9.922;2023-03-11T05:00:19;4.40;60.80
44729;DHT22;30457;53.590;9.922;2023-03-11T05:04:50;4.30;60.60
44729;DHT22;30457;53.590;9.922;2023-03-11T05:09:16;4.30;60.60
44729;DHT22;30457;53.590;9.922;2023-03-11T05:13:43;4.20;60.60
44729;DHT22;30457;53.590;9.922;2023-03-11T05:18:09;4.20;60.50
44729;DHT22;30457;53.590;9.922;2023-03-11T05:22:37;4.10;60.50
44729;DHT22;30457;53.590;9.922;2023-03-11T05:27:03;4.10;60.50
44729;DHT22;30457;53.590;9.922;2023-03-11T05:31:29;4.00;60.70
44729;DHT22;30457;53.590;9.922;2023-03-11T05:36:03;3.90;60.70
44729;DHT22;30457;53.590;9.922;2023-03-11T05:40:29;3.90;60.80
44729;DHT22;30457;53.590;9.922;2023-03-11T05:44:55;3.80;60.70
44729;DHT22;30457;53.590;9.922;2023-03-11T05:49:22;3.80;60.90
44729;DHT22;30457;53.590;9.922;2023-03-11T05:53:50;3.70;60.90
44729;DHT22;30457;53.590;9.922;2023-03-11T05:58:24;3.70;60.80
44729;DHT22;30457;53.590;9.922;2023-03-11T06:02:49;3.70;60.80
44729;DHT22;30457;53.590;9.922;2023-03-11T06:07:17;3.70;60.90
44729;DHT22;30457;53.590;9.922;2023-03-11T06:11:46;3.70;60.80
44729;DHT22;30457;53.590;9.922;2023-03-11T06:16:13;3.60;61.00
44729;DHT22;30457;53.590;9.922;2023-03-11T06:20:39;3.60;61.00
44729;DHT22;30457;53.590;9.922;2023-03-11T06:25:05;3.60;60.90
44729;DHT22;30457;53.590;9.922;2023-03-11T06:29:32;3.60;61.10
44729;DHT22;30457;53.590;9.922;2023-03-11T06:33:58;3.60;61.30
44729;DHT22;30457;53.590;9.922;2023-03-11T06:38:24;3.60;61.20
44729;DHT22;30457;53.590;9.922;2023-03-11T06:42:50;3.70;61.40
44729;DHT22;30457;53.590;9.922;2023-03-11T06:47:18;3.70;61.50
44729;DHT22;30457;53.590;9.922;2023-03-11T06:51:43;3.70;61.40
44729;DHT22;30457;53.590;9.922;2023-03-11T06:56:12;3.80;61.60
44729;DHT22;30457;53.590;9.922;2023-03-11T07:00:44;3.80;61.70
44729;DHT22;30457;53.590;9.922;2023-03-11T07:05:09;3.90;61.80
44729;DHT22;30457;53.590;9.922;2023-03-11T07:09:37;4.00;62.10
44729;DHT22;30457;53.590;9.922;2023-03-11T07:14:04;4.10;62.20
44729;DHT22;30457;53.590;9.922;2023-03-11T07:18:34;4.20;62.10
44729;DHT22;30457;53.590;9.922;2023-03-11T07:23:00;4.40;62.10
44729;DHT22;30457;53.590;9.922;2023-03-11T07:27:27;4.50;62.10
44729;DHT22;30457;53.590;9.922;2023-03-11T07:31:53;4.60;62.10
44729;DHT22;30457;53.590;9.922;2023-03-11T07:36:21;4.70;62.10
44729;DHT22;30457;53.590;9.922;2023-03-11T07:40:56;4.90;61.90
44729;DHT22;30457;53.590;9.922;2023-03-11T07:45:22;5.00;61.70
44729;DHT22;30457;53.590;9.922;2023-03-11T07:49:48;5.10;61.70
44729;DHT22;30457;53.590;9.922;2023-03-11T07:54:14;5.20;61.60
44729;DHT22;30457;53.590;9.922;2023-03-11T07:58:40;5.30;61.60
44729;DHT22;30457;53.590;9.922;2023-03-11T08:03:05;5.50;61.50
44729;DHT22;30457;53.590;9.922;2023-03-11T08:07:32;5.60;61.20
44729;DHT22;30457;53.590;9.922;2023-03-11T08:11:57;5.70;61.60
44729;DHT22;30457;53.590;9.922;2023-03-11T08:16:23;5.80;60.70
44729;DHT22;30457;53.590;9.922;2023-03-11T08:20:50;5.90;60.30
44729;DHT22;30457;53.590;9.922;2023-03-11T08:25:15;6.00;60.20
44729;DHT22;30457;53.590;9.922;2023-03-11T08:29:41;6.20;60.00
44729;DHT22;30457;53.590;9.922;2023-03-11T08:34:09;6.30;59.80
44729;DHT22;30457;53.590;9.922;2023-03-11T08:38:35;6.40;59.30
44729;DHT22;30457;53.590;9.922;2023-03-11T08:43:00;6.50;59.30
44729;DHT22;30457;53.590;9.922;2023-03-11T08:47:26;6.60;58.90
44729;DHT22;30457;53.590;9.922;2023-03-11T08:51:51;6.80;58.80
44729;DHT22;30457;53.590;9.922;2023-03-11T08:56:18;6.90;58.50
44729;DHT22;30457;53.590;9.922;2023-03-11T09:00:43;7.00;58.40
44729;DHT22;30457;53.590;9.922;2023-03-11T09:05:09;7.10;58.30
44729;DHT22;30457;53.590;9.922;2023-03-11T09:09:35;7.20;58.00
44729;DHT22;30457;53.590;9.922;2023-03-11T09:14:00;7.30;57.70
44729;DHT22;30457;53.590;9.922;2023-03-11T09:18:26;7.40;57.20
44729;DHT22;30457;53.590;9.922;2023-03-11T09:22:53;7.50;57.00
44729;DHT22;30457;53.590;9.922;2023-03-11T09:27:19;7.60;56.50
44729;DHT22;30457;53.590;9.922;2023-03-11T09:31:45;7.70;56.10
44729;DHT22;30457;53.590;9.922;2023-03-11T09:36:13;7.70;55.90
44729;DHT22;30457;53.590;9.922;2023-03-11T09:40:48;7.80;56.60
44729;DHT22;30457;53.590;9.922;2023-03-11T09:45:18;7.90;56.30
44729;DHT22;30457;53.590;9.922;2023-03-11T09:54:16;8.20;55.50
44729;DHT22;30457;53.590;9.922;2023-03-11T09:58:46;8.30;55.90
44729;DHT22;30457;53.590;9.922;2023-03-11T10:03:23;8.40;56.20
44729;DHT22;30457;53.590;9.922;2023-03-11T10:08:02;8.60;55.50
44729;DHT22;30457;53.590;9.922;2023-03-11T10:12:55;8.60;55.50
44729;DHT22;30457;53.590;9.922;2023-03-11T10:22:22;8.70;53.40
44729;DHT22;30457;53.590;9.922;2023-03-11T10:26:55;8.60;54.40
44729;DHT22;30457;53.590;9.922;2023-03-11T10:36:06;8.60;54.00
44729;DHT22;30457;53.590;9.922;2023-03-11T10:40:36;8.50;53.90
44729;DHT22;30457;53.590;9.922;2023-03-11T10:45:04;8.50;53.80
44729;DHT22;30457;53.590;9.922;2023-03-11T10:49:36;8.40;54.20
44729;DHT22;30457;53.590;9.922;2023-03-11T10:54:03;8.40;54.20
44729;DHT22;30457;53.590;9.922;2023-03-11T10:58:29;8.30;54.50
44729;DHT22;30457;53.590;9.922;2023-03-11T11:02:55;8.30;55.00
44729;DHT22;30457;53.590;9.922;2023-03-11T11:07:34;8.30;55.10
44729;DHT22;30457;53.590;9.922;2023-03-11T11:12:04;8.30;54.90
44729;DHT22;30457;53.590;9.922;2023-03-11T11:16:32;8.30;55.30
44729;DHT22;30457;53.590;9.922;2023-03-11T11:21:16;8.40;55.80
44729;DHT22;30457;53.590;9.922;2023-03-11T11:25:58;8.50;55.40
44729;DHT22;30457;53.590;9.922;2023-03-11T11:30:24;8.60;55.10
44729;DHT22;30457;53.590;9.922;2023-03-11T11:35:02;8.70;55.40
44729;DHT22;30457;53.590;9.922;2023-03-11T11:39:34;8.80;54.90
44729;DHT22;30457;53.590;9.922;2023-03-11T11:44:05;9.00;55.10
44729;DHT22;30457;53.590;9.922;2023-03-11T11:53:45;9.30;54.30
44729;DHT22;30457;53.590;9.922;2023-03-11T11:58:14;9.50;55.10
44729;DHT22;30457;53.590;9.922;2023-03-11T12:03:00;9.70;54.60
44729;DHT22;30457;53.590;9.922;2023-03-11T12:12:31;10.20;53.50
44729;DHT22;30457;53.590;9.922;2023-03-11T12:16:59;10.30;53.20
44729;DHT22;30457;53.590;9.922;2023-03-11T12:30:43;10.60;51.00
44729;DHT22;30457;53.590;9.922;2023-03-11T12:35:19;10.70;51.60
44729;DHT22;30457;53.590;9.922;2023-03-11T12:39:45;10.90;51.00
44729;DHT22;30457;53.590;9.922;2023-03-11T12:44:24;11.10;51.00
44729;DHT22;30457;53.590;9.922;2023-03-11T12:49:12;11.40;50.60
44729;DHT22;30457;53.590;9.922;2023-03-11T12:53:44;11.60;49.30
44729;DHT22;30457;53.590;9.922;2023-03-11T13:04:10;11.60;48.80
44729;DHT22;30457;53.590;9.922;2023-03-11T13:08:18;11.40;49.10
44729;DHT22;30457;53.590;9.922;2023-03-11T13:12:49;11.30;48.50
44729;DHT22;30457;53.590;9.922;2023-03-11T13:17:23;11.20;49.10
44729;DHT22;30457;53.590;9.922;2023-03-11T13:21:49;11.20;48.90
44729;DHT22;30457;53.590;9.922;2023-03-11T13:26:21;11.20;48.40
44729;DHT22;30457;53.590;9.922;2023-03-11T13:35:42;11.30;48.00
44729;DHT22;30457;53.590;9.922;2023-03-11T13:44:54;11.60;48.80
44729;DHT22;30457;53.590;9.922;2023-03-11T13:49:44;11.70;49.40
44729;DHT22;30457;53.590;9.922;2023-03-11T13:54:20;11.90;47.00
44729;DHT22;30457;53.590;9.922;2023-03-11T13:58:49;11.90;47.40
44729;DHT22;30457;53.590;9.922;2023-03-11T14:03:15;11.90;47.30
44729;DHT22;30457;53.590;9.922;2023-03-11T14:07:46;11.80;46.50
44729;DHT22;30457;53.590;9.922;2023-03-11T14:12:12;11.60;46.70
44729;DHT22;30457;53.590;9.922;2023-03-11T14:16:38;11.50;46.40
44729;DHT22;30457;53.590;9.922;2023-03-11T14:21:17;11.40;46.90
44729;DHT22;30457;53.590;9.922;2023-03-11T14:25:43;11.30;45.40
44729;DHT22;30457;53.590;9.922;2023-03-11T14:30:18;11.20;46.70
44729;DHT22;30457;53.590;9.922;2023-03-11T14:34:44;11.20;46.30
44729;DHT22;30457;53.590;9.922;2023-03-11T14:43:56;11.00;46.70
44729;DHT22;30457;53.590;9.922;2023-03-11T14:48:27;10.90;46.80
44729;DHT22;30457;53.590;9.922;2023-03-11T14:53:05;10.80;46.50
44729;DHT22;30457;53.590;9.922;2023-03-11T14:57:39;10.60;46.60
44729;DHT22;30457;53.590;9.922;2023-03-11T15:02:34;10.50;47.10
44729;DHT22;30457;53.590;9.922;2023-03-11T15:07:03;10.30;47.00
44729;DHT22;30457;53.590;9.922;2023-03-11T15:11:29;10.20;47.30
44729;DHT22;30457;53.590;9.922;2023-03-11T15:15:58;10.10;47.20
44729;DHT22;30457;53.590;9.922;2023-03-11T15:20:28;10.10;48.10
44729;DHT22;30457;53.590;9.922;2023-03-11T15:25:00;10.00;47.50
44729;DHT22;30457;53.590;9.922;2023-03-11T15:29:26;9.90;47.80
44729;DHT22;30457;53.590;9.922;2023-03-11T15:33:52;9.90;48.20
44729;DHT22;30457;53.590;9.922;2023-03-11T15:42:46;9.80;48.30
44729;DHT22;30457;53.590;9.922;2023-03-11T15:47:17;9.80;48.80
44729;DHT22;30457;53.590;9.922;2023-03-11T15:51:43;9.70;48.50
44729;DHT22;30457;53.590;9.922;2023-03-11T15:56:12;9.70;49.00
44729;DHT22;30457;53.590;9.922;2023-03-11T16:00:47;9.60;49.40
44729;DHT22;30457;53.590;9.922;2023-03-11T16:05:18;9.50;50.40
44729;DHT22;30457;53.590;9.922;2023-03-11T16:09:44;9.30;50.70
44729;DHT22;30457;53.590;9.922;2023-03-11T16:14:18;9.10;51.10
44729;DHT22;30457;53.590;9.922;2023-03-11T16:18:45;9.00;51.50
44729;DHT22;30457;53.590;9.922;2023-03-11T16:23:17;8.90;51.70
44729;DHT22;30457;53.590;9.922;2023-03-11T16:27:44;8.80;52.20
44729;DHT22;30457;53.590;9.922;2023-03-11T16:32:10;8.70;52.40
44729;DHT22;30457;53.590;9.922;2023-03-11T16:36:36;8.60;52.60
44729;DHT22;30457;53.590;9.922;2023-03-11T16:41:01;8.50;53.50
44729;DHT22;30457;53.590;9.922;2023-03-11T16:45:27;8.40;53.40
44729;DHT22;30457;53.590;9.922;2023-03-11T16:49:53;8.40;53.50
44729;DHT22;30457;53.590;9.922;2023-03-11T16:54:18;8.30;53.60
44729;DHT22;30457;53.590;9.922;2023-03-11T16:58:44;8.20;53.70
44729;DHT22;30457;53.590;9.922;2023-03-11T17:03:14;8.20;54.00
44729;DHT22;30457;53.590;9.922;2023-03-11T17:07:40;8.10;54.10
44729;DHT22;30457;53.590;9.922;2023-03-11T17:12:06;8.00;54.20
44729;DHT22;30457;53.590;9.922;2023-03-11T17:16:33;7.90;54.20
44729;DHT22;30457;53.590;9.922;2023-03-11T17:20:59;7.90;54.40
44729;DHT22;30457;53.590;9.922;2023-03-11T17:25:29;7.80;54.50
44729;DHT22;30457;53.590;9.922;2023-03-11T17:29:54;7.70;54.50
44729;DHT22;30457;53.590;9.922;2023-03-11T17:34:20;7.60;54.70
44729;DHT22;30457;53.590;9.922;2023-03-11T17:38:46;7.50;54.80
44729;DHT22;30457;53.590;9.922;2023-03-11T17:43:12;7.50;55.20
44729;DHT22;30457;53.590;9.922;2023-03-11T17:47:37;7.40;55.40
44729;DHT22;30457;53.590;9.922;2023-03-11T17:52:03;7.30;55.40
44729;DHT22;30457;53.590;9.922;2023-03-11T17:56:29;7.20;55.60
44729;DHT22;30457;53.590;9.922;2023-03-11T18:00:54;7.10;55.70
44729;DHT22;30457;53.590;9.922;2023-03-11T18:05:20;7.10;55.70
44729;DHT22;30457;53.590;9.922;2023-03-11T18:09:49;7.00;55.80
44729;DHT22;30457;53.590;9.922;2023-03-11T18:14:15;7.00;55.90
44729;DHT22;30457;53.590;9.922;2023-03-11T18:18:41;6.90;55.90
44729;DHT22;30457;53.590;9.922;2023-03-11T18:23:07;6.90;56.00
44729;DHT22;30457;53.590;9.922;2023-03-11T18:27:33;6.80;56.00
44729;DHT22;30457;53.590;9.922;2023-03-11T18:31:58;6.80;56.40
44729;DHT22;30457;53.590;9.922;2023-03-11T18:36:32;6.70;56.30
44729;DHT22;30457;53.590;9.922;2023-03-11T18:40:58;6.70;56.60
44729;DHT22;30457;53.590;9.922;2023-03-11T18:45:23;6.60;56.70
44729;DHT22;30457;53.590;9.922;2023-03-11T18:49:49;6.60;56.70
44729;DHT22;30457;53.590;9.922;2023-03-11T18:54:15;6.50;56.80
44729;DHT22;30457;53.590;9.922;2023-03-11T18:58:40;6.50;56.80
44729;DHT22;30457;53.590;9.922;2023-03-11T19:03:09;6.50;57.10
44729;DHT22;30457;53.590;9.922;2023-03-11T19:07:35;6.50;57.20
44729;DHT22;30457;53.590;9.922;2023-03-11T19:12:00;6.40;57.00
44729;DHT22;30457;53.590;9.922;2023-03-11T19:16:26;6.40;57.00
44729;DHT22;30457;53.590;9.922;2023-03-11T19:21:00;6.40;57.10
44729;DHT22;30457;53.590;9.922;2023-03-11T19:25:26;6.30;57.20
44729;DHT22;30457;53.590;9.922;2023-03-11T19:29:51;6.30;57.20
44729;DHT22;30457;53.590;9.922;2023-03-11T19:34:17;6.30;57.30
44729;DHT22;30457;53.590;9.922;2023-03-11T19:38:43;6.30;57.20
44729;DHT22;30457;53.590;9.922;2023-03-11T19:43:08;6.30;57.30
44729;DHT22;30457;53.590;9.922;2023-03-11T19:47:35;6.20;57.20
44729;DHT22;30457;53.590;9.922;2023-03-11T19:52:00;6.20;57.70
44729;DHT22;30457;53.590;9.922;2023-03-11T19:56:26;6.20;58.00
44729;DHT22;30457;53.590;9.922;2023-03-11T20:00:53;6.20;57.80
44729;DHT22;30457;53.590;9.922;2023-03-11T20:05:18;6.20;58.00
44729;DHT22;30457;53.590;9.922;2023-03-11T20:09:44;6.20;57.90
44729;DHT22;30457;53.590;9.922;2023-03-11T20:14:09;6.20;58.00
44729;DHT22;30457;53.590;9.922;2023-03-11T20:18:35;6.30;58.20
44729;DHT22;30457;53.590;9.922;2023-03-11T20:23:01;6.20;58.10
44729;DHT22;30457;53.590;9.922;2023-03-11T20:27:26;6.30;58.00
44729;DHT22;30457;53.590;9.922;2023-03-11T20:31:52;6.30;58.00
44729;DHT22;30457;53.590;9.922;2023-03-11T20:36:21;6.30;58.20
44729;DHT22;30457;53.590;9.922;2023-03-11T20:40:54;6.30;58.10
44729;DHT22;30457;53.590;9.922;2023-03-11T20:45:20;6.40;58.10
44729;DHT22;30457;53.590;9.922;2023-03-11T20:49:46;6.30;58.10
44729;DHT22;30457;53.590;9.922;2023-03-11T20:54:11;6.40;58.10
44729;DHT22;30457;53.590;9.922;2023-03-11T20:58:37;6.40;58.10
44729;DHT22;30457;53.590;9.922;2023-03-11T21:03:03;6.40;58.10
44729;DHT22;30457;53.590;9.922;2023-03-11T21:07:28;6.40;58.20
44729;DHT22;30457;53.590;9.922;2023-03-11T21:11:54;6.40;58.00
44729;DHT22;30457;53.590;9.922;2023-03-11T21:16:20;6.40;58.20
44729;DHT22;30457;53.590;9.922;2023-03-11T21:20:45;6.40;58.20
44729;DHT22;30457;53.590;9.922;2023-03-11T21:25:11;6.40;58.20
44729;DHT22;30457;53.590;9.922;2023-03-11T21:29:36;6.30;58.60
44729;DHT22;30457;53.590;9.922;2023-03-11T21:34:02;6.30;58.50
44729;DHT22;30457;53.590;9.922;2023-03-11T21:38:28;6.30;58.60
44729;DHT22;30457;53.590;9.922;2023-03-11T21:42:53;6.30;58.80
44729;DHT22;30457;53.590;9.922;2023-03-11T21:47:19;6.30;58.80
44729;DHT22;30457;53.590;9.922;2023-03-11T21:51:44;6.30;58.70
44729;DHT22;30457;53.590;9.922;2023-03-11T21:56:10;6.30;58.90
44729;DHT22;30457;53.590;9.922;2023-03-11T22:00:37;6.20;58.70
44729;DHT22;30457;53.590;9.922;2023-03-11T22:05:03;6.20;58.80
44729;DHT22;30457;53.590;9.922;2023-03-11T22:09:29;6.30;58.90
44729;DHT22;30457;53.590;9.922;2023-03-11T22:13:55;6.20;58.90
44729;DHT22;30457;53.590;9.922;2023-03-11T22:18:21;6.20;59.10
44729;DHT22;30457;53.590;9.922;2023-03-11T22:22:47;6.30;58.90
44729;DHT22;30457;53.590;9.922;2023-03-11T22:27:12;6.20;58.90
44729;DHT22;30457;53.590;9.922;2023-03-11T22:31:38;6.20;59.00
44729;DHT22;30457;53.590;9.922;2023-03-11T22:36:04;6.20;59.00
44729;DHT22;30457;53.590;9.922;2023-03-11T22:40:30;6.20;58.80
44729;DHT22;30457;53.590;9.922;2023-03-11T22:44:56;6.20;59.10
44729;DHT22;30457;53.590;9.922;2023-03-11T22:49:21;6.20;58.80
44729;DHT22;30457;53.590;9.922;2023-03-11T22:53:47;6.20;58.90
44729;DHT22;30457;53.590;9.922;2023-03-11T22:58:13;6.10;58.70
44729;DHT22;30457;53.590;9.922;2023-03-11T23:02:38;6.10;58.90
44729;DHT22;30457;53.590;9.922;2023-03-11T23:07:04;6.10;58.80
44729;DHT22;30457;53.590;9.922;2023-03-11T23:11:30;6.00;58.90
44729;DHT22;30457;53.590;9.922;2023-03-11T23:15:55;6.00;58.90
44729;DHT22;30457;53.590;9.922;2023-03-11T23:20:21;6.00;58.90
44729;DHT22;30457;53.590;9.922;2023-03-11T23:24:47;6.00;58.90
44729;DHT22;30457;53.590;9.922;2023-03-11T23:29:12;5.90;58.90
44729;DHT22;30457;53.590;9.922;2023-03-11T23:33:39;5.90;59.00
44729;DHT22;30457;53.590;9.922;2023-03-11T23:38:05;5.90;59.00
44729;DHT22;30457;53.590;9.922;2023-03-11T23:42:32;5.80;59.00
44729;DHT22;30457;53.590;9.922;2023-03-11T23:46:59;5.80;59.00
44729;DHT22;30457;53.590;9.922;2023-03-11T23:51:24;5.70;59.10
44729;DHT22;30457;53.590;9.922;2023-03-11T23:55:50;5.70;59.20
